sensor_id;sensor_type;location;lat;lon;timestamp;pressure;altitude;pressure_sealevel;temperature
74539;BMP180;66042;51.090;-115.340;2023-03-01T00:01:41;85019.60;;;-4.40
74539;BMP180;66042;51.090;-115.340;2023-03-01T00:04:08;85026.00;;;-4.50
74539;BMP180;66042;51.090;-115.340;2023-03-01T00:06:36;85029.20;;;-4.60
74539;BMP180;66042;51.090;-115.340;2023-03-01T00:09:04;85028.80;;;-4.70
74539;BMP180;66042;51.090;-115.340;2023-03-01T00:11:33;85037.60;;;-4.82
74539;BMP180;66042;51.090;-115.340;2023-03-01T00:14:02;85042.00;;;-4.90
74539;BMP180;66042;51.090;-115.340;2023-03-01T00:16:40;85048.80;;;-5.00
74539;BMP180;66042;51.090;-115.340;2023-03-01T00:19:12;85051.60;;;-5.08
74539;BMP180;66042;51.090;-115.340;2023-03-01T00:21:41;85050.60;;;-5.20
74539;BMP180;66042;51.090;-115.340;2023-03-01T00:24:11;85053.40;;;-5.20
74539;BMP180;66042;51.090;-115.340;2023-03-01T00:26:38;85058.00;;;-5.32
74539;BMP180;66042;51.090;-115.340;2023-03-01T00:29:05;85059.20;;;-5.50
74539;BMP180;66042;51.090;-115.340;2023-03-01T00:31:33;85066.00;;;-5.58
74539;BMP180;66042;51.090;-115.340;2023-03-01T00:34:03;85066.20;;;-5.70
74539;BMP180;66042;51.090;-115.340;2023-03-01T00:36:34;85069.60;;;-5.88
74539;BMP180;66042;51.090;-115.340;2023-03-01T00:39:03;85078.40;;;-6.00
74539;BMP180;66042;51.090;-115.340;2023-03-01T00:41:31;85077.80;;;-6.10
74539;BMP180;66042;51.090;-115.340;2023-03-01T00:44:00;85082.60;;;-6.20
74539;BMP180;66042;51.090;-115.340;2023-03-01T00:46:27;85085.00;;;-6.30
74539;BMP180;66042;51.090;-115.340;2023-03-01T00:48:56;85090.20;;;-6.32
74539;BMP180;66042;51.090;-115.340;2023-03-01T00:51:27;85099.00;;;-6.40
74539;BMP180;66042;51.090;-115.340;2023-03-01T00:53:58;85100.20;;;-6.50
74539;BMP180;66042;51.090;-115.340;2023-03-01T00:56:26;85103.60;;;-6.60
74539;BMP180;66042;51.090;-115.340;2023-03-01T00:58:53;85107.80;;;-6.60
74539;BMP180;66042;51.090;-115.340;2023-03-01T01:01:26;85111.60;;;-6.60
74539;BMP180;66042;51.090;-115.340;2023-03-01T01:04:01;85114.80;;;-6.60
74539;BMP180;66042;51.090;-115.340;2023-03-01T01:06:35;85121.60;;;-6.70
74539;BMP180;66042;51.090;-115.340;2023-03-01T01:09:06;85118.40;;;-6.70
74539;BMP180;66042;51.090;-115.340;2023-03-01T01:11:34;85119.00;;;-6.80
74539;BMP180;66042;51.090;-115.340;2023-03-01T01:14:04;85123.00;;;-6.80
74539;BMP180;66042;51.090;-115.340;2023-03-01T01:16:31;85133.00;;;-6.90
74539;BMP180;66042;51.090;-115.340;2023-03-01T01:18:58;85135.00;;;-6.92
74539;BMP180;66042;51.090;-115.340;2023-03-01T01:21:27;85136.60;;;-7.00
74539;BMP180;66042;51.090;-115.340;2023-03-01T01:23:54;85143.00;;;-7.00
74539;BMP180;66042;51.090;-115.340;2023-03-01T01:26:27;85146.60;;;-7.00
74539;BMP180;66042;51.090;-115.340;2023-03-01T01:28:55;85151.80;;;-7.00
74539;BMP180;66042;51.090;-115.340;2023-03-01T01:31:23;85152.20;;;-7.02
74539;BMP180;66042;51.090;-115.340;2023-03-01T01:33:52;85150.20;;;-7.18
74539;BMP180;66042;51.090;-115.340;2023-03-01T01:36:20;85155.80;;;-7.20
74539;BMP180;66042;51.090;-115.340;2023-03-01T01:38:47;85158.60;;;-7.30
74539;BMP180;66042;51.090;-115.340;2023-03-01T01:41:14;85169.60;;;-7.40
74539;BMP180;66042;51.090;-115.340;2023-03-01T01:43:45;85170.60;;;-7.50
74539;BMP180;66042;51.090;-115.340;2023-03-01T01:46:34;85175.40;;;-7.50
74539;BMP180;66042;51.090;-115.340;2023-03-01T01:51:47;85186.00;;;-7.70
74539;BMP180;66042;51.090;-115.340;2023-03-01T01:54:33;85185.60;;;-7.80
74539;BMP180;66042;51.090;-115.340;2023-03-01T01:57:11;85194.80;;;-7.90
74539;BMP180;66042;51.090;-115.340;2023-03-01T01:59:42;85197.20;;;-7.80
74539;BMP180;66042;51.090;-115.340;2023-03-01T02:02:11;85206.60;;;-7.88
74539;BMP180;66042;51.090;-115.340;2023-03-01T02:04:39;85210.80;;;-7.90
74539;BMP180;66042;51.090;-115.340;2023-03-01T02:07:19;85207.20;;;-7.90
74539;BMP180;66042;51.090;-115.340;2023-03-01T02:09:50;85212.20;;;-7.90
74539;BMP180;66042;51.090;-115.340;2023-03-01T02:12:23;85211.60;;;-7.96
74539;BMP180;66042;51.090;-115.340;2023-03-01T02:14:50;85218.80;;;-8.00
74539;BMP180;66042;51.090;-115.340;2023-03-01T02:17:18;85219.00;;;-8.00
74539;BMP180;66042;51.090;-115.340;2023-03-01T02:20:17;85221.40;;;-8.10
74539;BMP180;66042;51.090;-115.340;2023-03-01T02:22:48;85227.80;;;-8.18
74539;BMP180;66042;51.090;-115.340;2023-03-01T02:28:25;85230.00;;;-8.30
74539;BMP180;66042;51.090;-115.340;2023-03-01T02:30:54;85231.80;;;-8.30
74539;BMP180;66042;51.090;-115.340;2023-03-01T02:33:40;85238.80;;;-8.40
74539;BMP180;66042;51.090;-115.340;2023-03-01T02:36:25;85243.00;;;-8.50
74539;BMP180;66042;51.090;-115.340;2023-03-01T02:38:58;85242.80;;;-8.50
74539;BMP180;66042;51.090;-115.340;2023-03-01T02:41:32;85243.60;;;-8.60
74539;BMP180;66042;51.090;-115.340;2023-03-01T02:44:01;85246.40;;;-8.60
74539;BMP180;66042;51.090;-115.340;2023-03-01T02:46:29;85249.20;;;-8.64
74539;BMP180;66042;51.090;-115.340;2023-03-01T02:48:58;85254.40;;;-8.60
74539;BMP180;66042;51.090;-115.340;2023-03-01T02:54:28;85267.20;;;-8.60
74539;BMP180;66042;51.090;-115.340;2023-03-01T02:56:58;85268.60;;;-8.60
74539;BMP180;66042;51.090;-115.340;2023-03-01T02:59:32;85271.40;;;-8.70
74539;BMP180;66042;51.090;-115.340;2023-03-01T03:02:29;85270.80;;;-8.66
74539;BMP180;66042;51.090;-115.340;2023-03-01T03:05:13;85271.40;;;-8.70
74539;BMP180;66042;51.090;-115.340;2023-03-01T03:07:43;85275.60;;;-8.70
74539;BMP180;66042;51.090;-115.340;2023-03-01T03:10:19;85281.40;;;-8.90
74539;BMP180;66042;51.090;-115.340;2023-03-01T03:12:53;85280.80;;;-9.10
74539;BMP180;66042;51.090;-115.340;2023-03-01T03:15:22;85280.20;;;-9.04
74539;BMP180;66042;51.090;-115.340;2023-03-01T03:17:50;85283.80;;;-9.04
74539;BMP180;66042;51.090;-115.340;2023-03-01T03:20:22;85290.60;;;-9.00
74539;BMP180;66042;51.090;-115.340;2023-03-01T03:22:54;85292.20;;;-9.00
74539;BMP180;66042;51.090;-115.340;2023-03-01T03:25:23;85295.00;;;-9.00
74539;BMP180;66042;51.090;-115.340;2023-03-01T03:27:52;85293.40;;;-9.00
74539;BMP180;66042;51.090;-115.340;2023-03-01T03:30:29;85302.60;;;-8.90
74539;BMP180;66042;51.090;-115.340;2023-03-01T03:32:59;85299.80;;;-8.90
74539;BMP180;66042;51.090;-115.340;2023-03-01T03:35:39;85301.60;;;-8.92
74539;BMP180;66042;51.090;-115.340;2023-03-01T03:38:10;85301.00;;;-9.10
74539;BMP180;66042;51.090;-115.340;2023-03-01T03:41:02;85302.80;;;-9.10
74539;BMP180;66042;51.090;-115.340;2023-03-01T03:43:33;85303.80;;;-9.00
74539;BMP180;66042;51.090;-115.340;2023-03-01T03:46:02;85301.20;;;-9.04
74539;BMP180;66042;51.090;-115.340;2023-03-01T03:48:37;85304.20;;;-9.00
74539;BMP180;66042;51.090;-115.340;2023-03-01T03:51:05;85309.20;;;-9.00
74539;BMP180;66042;51.090;-115.340;2023-03-01T03:53:32;85313.80;;;-9.10
74539;BMP180;66042;51.090;-115.340;2023-03-01T03:56:00;85318.80;;;-9.12
74539;BMP180;66042;51.090;-115.340;2023-03-01T03:58:27;85316.20;;;-9.10
74539;BMP180;66042;51.090;-115.340;2023-03-01T04:00:56;85318.20;;;-9.10
74539;BMP180;66042;51.090;-115.340;2023-03-01T04:03:27;85326.80;;;-9.20
74539;BMP180;66042;51.090;-115.340;2023-03-01T04:05:56;85326.00;;;-9.20
74539;BMP180;66042;51.090;-115.340;2023-03-01T04:08:24;85332.20;;;-9.20
74539;BMP180;66042;51.090;-115.340;2023-03-01T04:10:57;85330.80;;;-9.20
74539;BMP180;66042;51.090;-115.340;2023-03-01T04:13:25;85335.80;;;-9.20
74539;BMP180;66042;51.090;-115.340;2023-03-01T04:15:54;85337.60;;;-9.22
74539;BMP180;66042;51.090;-115.340;2023-03-01T04:18:23;85335.20;;;-9.30
74539;BMP180;66042;51.090;-115.340;2023-03-01T04:20:53;85336.40;;;-9.32
74539;BMP180;66042;51.090;-115.340;2023-03-01T04:23:22;85339.20;;;-9.40
74539;BMP180;66042;51.090;-115.340;2023-03-01T04:25:59;85349.60;;;-9.50
74539;BMP180;66042;51.090;-115.340;2023-03-01T04:28:33;85350.00;;;-9.50
74539;BMP180;66042;51.090;-115.340;2023-03-01T04:31:06;85356.20;;;-9.50
74539;BMP180;66042;51.090;-115.340;2023-03-01T04:33:53;85356.80;;;-9.58
74539;BMP180;66042;51.090;-115.340;2023-03-01T04:36:25;85356.80;;;-9.60
74539;BMP180;66042;51.090;-115.340;2023-03-01T04:38:53;85362.00;;;-9.70
74539;BMP180;66042;51.090;-115.340;2023-03-01T04:41:23;85366.60;;;-9.80
74539;BMP180;66042;51.090;-115.340;2023-03-01T04:43:51;85365.60;;;-9.86
74539;BMP180;66042;51.090;-115.340;2023-03-01T04:46:20;85369.40;;;-9.90
74539;BMP180;66042;51.090;-115.340;2023-03-01T04:48:48;85369.40;;;-9.90
74539;BMP180;66042;51.090;-115.340;2023-03-01T04:51:15;85367.60;;;-10.00
74539;BMP180;66042;51.090;-115.340;2023-03-01T04:53:43;85365.40;;;-10.00
74539;BMP180;66042;51.090;-115.340;2023-03-01T04:56:11;85371.00;;;-10.10
74539;BMP180;66042;51.090;-115.340;2023-03-01T04:58:40;85367.40;;;-10.10
74539;BMP180;66042;51.090;-115.340;2023-03-01T05:01:16;85372.60;;;-10.10
74539;BMP180;66042;51.090;-115.340;2023-03-01T05:03:51;85368.40;;;-10.10
74539;BMP180;66042;51.090;-115.340;2023-03-01T05:06:20;85367.20;;;-10.20
74539;BMP180;66042;51.090;-115.340;2023-03-01T05:08:47;85371.60;;;-10.30
74539;BMP180;66042;51.090;-115.340;2023-03-01T05:11:14;85374.40;;;-10.36
74539;BMP180;66042;51.090;-115.340;2023-03-01T05:13:41;85372.60;;;-10.50
74539;BMP180;66042;51.090;-115.340;2023-03-01T05:16:09;85381.40;;;-10.60
74539;BMP180;66042;51.090;-115.340;2023-03-01T05:18:37;85385.40;;;-10.68
74539;BMP180;66042;51.090;-115.340;2023-03-01T05:21:13;85387.60;;;-10.68
74539;BMP180;66042;51.090;-115.340;2023-03-01T05:23:44;85386.80;;;-10.84
74539;BMP180;66042;51.090;-115.340;2023-03-01T05:26:15;85389.20;;;-11.00
74539;BMP180;66042;51.090;-115.340;2023-03-01T05:28:42;85387.60;;;-11.10
74539;BMP180;66042;51.090;-115.340;2023-03-01T05:31:09;85392.60;;;-11.20
74539;BMP180;66042;51.090;-115.340;2023-03-01T05:33:38;85391.80;;;-11.20
74539;BMP180;66042;51.090;-115.340;2023-03-01T05:36:08;85393.40;;;-11.08
74539;BMP180;66042;51.090;-115.340;2023-03-01T05:38:36;85395.40;;;-11.00
74539;BMP180;66042;51.090;-115.340;2023-03-01T05:41:03;85397.80;;;-10.90
74539;BMP180;66042;51.090;-115.340;2023-03-01T05:43:33;85403.00;;;-10.80
74539;BMP180;66042;51.090;-115.340;2023-03-01T05:46:00;85396.80;;;-10.80
74539;BMP180;66042;51.090;-115.340;2023-03-01T05:48:28;85399.20;;;-10.70
74539;BMP180;66042;51.090;-115.340;2023-03-01T05:50:57;85402.00;;;-10.70
74539;BMP180;66042;51.090;-115.340;2023-03-01T05:53:26;85403.20;;;-10.70
74539;BMP180;66042;51.090;-115.340;2023-03-01T05:55:53;85405.80;;;-10.70
74539;BMP180;66042;51.090;-115.340;2023-03-01T05:58:20;85404.40;;;-10.80
74539;BMP180;66042;51.090;-115.340;2023-03-01T06:00:50;85409.80;;;-10.84
74539;BMP180;66042;51.090;-115.340;2023-03-01T06:03:18;85408.20;;;-11.00
74539;BMP180;66042;51.090;-115.340;2023-03-01T06:05:45;85408.80;;;-11.00
74539;BMP180;66042;51.090;-115.340;2023-03-01T06:08:13;85409.00;;;-11.10
74539;BMP180;66042;51.090;-115.340;2023-03-01T06:10:40;85412.00;;;-11.10
74539;BMP180;66042;51.090;-115.340;2023-03-01T06:13:07;85416.40;;;-11.00
74539;BMP180;66042;51.090;-115.340;2023-03-01T06:15:35;85420.00;;;-11.00
74539;BMP180;66042;51.090;-115.340;2023-03-01T06:18:02;85421.20;;;-11.00
74539;BMP180;66042;51.090;-115.340;2023-03-01T06:20:29;85426.20;;;-11.10
74539;BMP180;66042;51.090;-115.340;2023-03-01T06:22:57;85427.40;;;-11.10
74539;BMP180;66042;51.090;-115.340;2023-03-01T06:25:26;85431.60;;;-11.10
74539;BMP180;66042;51.090;-115.340;2023-03-01T06:27:54;85430.80;;;-11.08
74539;BMP180;66042;51.090;-115.340;2023-03-01T06:30:23;85426.00;;;-11.10
74539;BMP180;66042;51.090;-115.340;2023-03-01T06:32:50;85426.00;;;-11.12
74539;BMP180;66042;51.090;-115.340;2023-03-01T06:35:19;85430.80;;;-11.28
74539;BMP180;66042;51.090;-115.340;2023-03-01T06:37:48;85436.80;;;-11.40
74539;BMP180;66042;51.090;-115.340;2023-03-01T06:40:15;85439.60;;;-11.32
74539;BMP180;66042;51.090;-115.340;2023-03-01T06:42:47;85443.00;;;-11.30
74539;BMP180;66042;51.090;-115.340;2023-03-01T06:45:20;85448.20;;;-11.30
74539;BMP180;66042;51.090;-115.340;2023-03-01T06:47:48;85448.20;;;-11.30
74539;BMP180;66042;51.090;-115.340;2023-03-01T06:50:16;85447.00;;;-11.30
74539;BMP180;66042;51.090;-115.340;2023-03-01T06:52:44;85444.80;;;-11.30
74539;BMP180;66042;51.090;-115.340;2023-03-01T06:55:12;85443.60;;;-11.30
74539;BMP180;66042;51.090;-115.340;2023-03-01T06:57:39;85439.20;;;-11.40
74539;BMP180;66042;51.090;-115.340;2023-03-01T07:00:07;85438.60;;;-11.50
74539;BMP180;66042;51.090;-115.340;2023-03-01T07:02:34;85434.80;;;-11.70
74539;BMP180;66042;51.090;-115.340;2023-03-01T07:05:02;85436.00;;;-11.60
74539;BMP180;66042;51.090;-115.340;2023-03-01T07:07:28;85434.20;;;-11.58
74539;BMP180;66042;51.090;-115.340;2023-03-01T07:09:55;85436.80;;;-11.50
74539;BMP180;66042;51.090;-115.340;2023-03-01T07:12:22;85437.40;;;-11.50
74539;BMP180;66042;51.090;-115.340;2023-03-01T07:14:49;85436.20;;;-11.54
74539;BMP180;66042;51.090;-115.340;2023-03-01T07:17:16;85434.00;;;-11.50
74539;BMP180;66042;51.090;-115.340;2023-03-01T07:19:43;85432.20;;;-11.50
74539;BMP180;66042;51.090;-115.340;2023-03-01T07:22:11;85434.40;;;-11.40
74539;BMP180;66042;51.090;-115.340;2023-03-01T07:24:38;85438.80;;;-11.40
74539;BMP180;66042;51.090;-115.340;2023-03-01T07:27:05;85433.00;;;-11.42
74539;BMP180;66042;51.090;-115.340;2023-03-01T07:29:32;85433.00;;;-11.40
74539;BMP180;66042;51.090;-115.340;2023-03-01T07:31:59;85438.80;;;-11.40
74539;BMP180;66042;51.090;-115.340;2023-03-01T07:34:26;85441.00;;;-11.50
74539;BMP180;66042;51.090;-115.340;2023-03-01T07:36:53;85439.60;;;-11.50
74539;BMP180;66042;51.090;-115.340;2023-03-01T07:39:20;85439.00;;;-11.50
74539;BMP180;66042;51.090;-115.340;2023-03-01T07:41:50;85438.80;;;-11.50
74539;BMP180;66042;51.090;-115.340;2023-03-01T07:44:17;85442.20;;;-11.50
74539;BMP180;66042;51.090;-115.340;2023-03-01T07:46:45;85443.60;;;-11.60
74539;BMP180;66042;51.090;-115.340;2023-03-01T07:49:11;85446.00;;;-11.70
74539;BMP180;66042;51.090;-115.340;2023-03-01T07:51:39;85455.00;;;-11.74
74539;BMP180;66042;51.090;-115.340;2023-03-01T07:54:06;85453.40;;;-11.80
74539;BMP180;66042;51.090;-115.340;2023-03-01T07:56:32;85449.80;;;-12.02
74539;BMP180;66042;51.090;-115.340;2023-03-01T07:59:00;85448.80;;;-12.20
74539;BMP180;66042;51.090;-115.340;2023-03-01T08:01:27;85452.80;;;-12.10
74539;BMP180;66042;51.090;-115.340;2023-03-01T08:03:54;85451.40;;;-12.00
74539;BMP180;66042;51.090;-115.340;2023-03-01T08:06:21;85451.20;;;-11.92
74539;BMP180;66042;51.090;-115.340;2023-03-01T08:08:48;85448.80;;;-11.86
74539;BMP180;66042;51.090;-115.340;2023-03-01T08:11:15;85445.80;;;-11.80
74539;BMP180;66042;51.090;-115.340;2023-03-01T08:13:43;85441.00;;;-11.88
74539;BMP180;66042;51.090;-115.340;2023-03-01T08:16:15;85442.20;;;-11.88
74539;BMP180;66042;51.090;-115.340;2023-03-01T08:18:43;85446.60;;;-11.80
74539;BMP180;66042;51.090;-115.340;2023-03-01T08:21:15;85446.20;;;-11.80
74539;BMP180;66042;51.090;-115.340;2023-03-01T08:23:43;85448.20;;;-11.80
74539;BMP180;66042;51.090;-115.340;2023-03-01T08:26:15;85442.00;;;-11.80
74539;BMP180;66042;51.090;-115.340;2023-03-01T08:28:43;85436.00;;;-11.90
74539;BMP180;66042;51.090;-115.340;2023-03-01T08:31:25;85433.00;;;-12.00
74539;BMP180;66042;51.090;-115.340;2023-03-01T08:33:58;85433.00;;;-12.10
74539;BMP180;66042;51.090;-115.340;2023-03-01T08:36:35;85434.20;;;-12.10
74539;BMP180;66042;51.090;-115.340;2023-03-01T08:39:05;85432.60;;;-12.20
74539;BMP180;66042;51.090;-115.340;2023-03-01T08:41:32;85432.80;;;-12.22
74539;BMP180;66042;51.090;-115.340;2023-03-01T08:44:00;85439.20;;;-12.20
74539;BMP180;66042;51.090;-115.340;2023-03-01T08:46:36;85450.20;;;-12.10
74539;BMP180;66042;51.090;-115.340;2023-03-01T08:49:14;85448.00;;;-12.04
74539;BMP180;66042;51.090;-115.340;2023-03-01T08:51:43;85454.20;;;-12.04
74539;BMP180;66042;51.090;-115.340;2023-03-01T08:54:19;85452.20;;;-12.12
74539;BMP180;66042;51.090;-115.340;2023-03-01T08:56:47;85449.40;;;-12.08
74539;BMP180;66042;51.090;-115.340;2023-03-01T08:59:18;85447.00;;;-12.00
74539;BMP180;66042;51.090;-115.340;2023-03-01T09:01:45;85438.80;;;-12.06
74539;BMP180;66042;51.090;-115.340;2023-03-01T09:04:14;85436.80;;;-12.00
74539;BMP180;66042;51.090;-115.340;2023-03-01T09:06:42;85437.80;;;-11.90
74539;BMP180;66042;51.090;-115.340;2023-03-01T09:09:15;85438.80;;;-11.98
74539;BMP180;66042;51.090;-115.340;2023-03-01T09:11:44;85441.00;;;-11.96
74539;BMP180;66042;51.090;-115.340;2023-03-01T09:14:13;85441.80;;;-12.10
74539;BMP180;66042;51.090;-115.340;2023-03-01T09:16:41;85435.20;;;-12.30
74539;BMP180;66042;51.090;-115.340;2023-03-01T09:19:08;85427.60;;;-12.30
74539;BMP180;66042;51.090;-115.340;2023-03-01T09:21:35;85429.60;;;-12.20
74539;BMP180;66042;51.090;-115.340;2023-03-01T09:24:02;85425.20;;;-12.10
74539;BMP180;66042;51.090;-115.340;2023-03-01T09:26:29;85417.60;;;-12.12
74539;BMP180;66042;51.090;-115.340;2023-03-01T09:28:56;85418.40;;;-12.20
74539;BMP180;66042;51.090;-115.340;2023-03-01T09:31:24;85417.80;;;-12.32
74539;BMP180;66042;51.090;-115.340;2023-03-01T09:33:54;85413.40;;;-12.36
74539;BMP180;66042;51.090;-115.340;2023-03-01T09:36:24;85414.40;;;-12.28
74539;BMP180;66042;51.090;-115.340;2023-03-01T09:38:54;85418.60;;;-12.18
74539;BMP180;66042;51.090;-115.340;2023-03-01T09:44:40;85424.20;;;-12.20
74539;BMP180;66042;51.090;-115.340;2023-03-01T09:47:23;85420.40;;;-12.40
74539;BMP180;66042;51.090;-115.340;2023-03-01T09:50:18;85419.00;;;-12.32
74539;BMP180;66042;51.090;-115.340;2023-03-01T09:53:23;85418.40;;;-12.20
74539;BMP180;66042;51.090;-115.340;2023-03-01T09:56:19;85424.40;;;-12.10
74539;BMP180;66042;51.090;-115.340;2023-03-01T10:01:59;85429.60;;;-12.00
74539;BMP180;66042;51.090;-115.340;2023-03-01T10:04:47;85429.20;;;-11.90
74539;BMP180;66042;51.090;-115.340;2023-03-01T10:08:12;85423.60;;;-12.00
74539;BMP180;66042;51.090;-115.340;2023-03-01T10:10:46;85426.60;;;-11.90
74539;BMP180;66042;51.090;-115.340;2023-03-01T10:19:36;85425.20;;;-12.00
74539;BMP180;66042;51.090;-115.340;2023-03-01T10:22:29;85429.60;;;-11.98
74539;BMP180;66042;51.090;-115.340;2023-03-01T10:25:01;85431.40;;;-11.90
74539;BMP180;66042;51.090;-115.340;2023-03-01T10:27:53;85430.80;;;-11.90
74539;BMP180;66042;51.090;-115.340;2023-03-01T10:30:37;85434.80;;;-12.00
74539;BMP180;66042;51.090;-115.340;2023-03-01T10:33:24;85429.20;;;-12.10
74539;BMP180;66042;51.090;-115.340;2023-03-01T10:35:53;85433.40;;;-12.10
74539;BMP180;66042;51.090;-115.340;2023-03-01T10:38:21;85428.80;;;-12.04
74539;BMP180;66042;51.090;-115.340;2023-03-01T10:40:59;85433.00;;;-12.00
74539;BMP180;66042;51.090;-115.340;2023-03-01T10:43:50;85429.20;;;-11.90
74539;BMP180;66042;51.090;-115.340;2023-03-01T10:46:32;85422.20;;;-11.90
74539;BMP180;66042;51.090;-115.340;2023-03-01T10:49:21;85427.00;;;-12.00
74539;BMP180;66042;51.090;-115.340;2023-03-01T10:51:51;85422.80;;;-12.10
74539;BMP180;66042;51.090;-115.340;2023-03-01T10:54:32;85432.80;;;-12.10
74539;BMP180;66042;51.090;-115.340;2023-03-01T10:57:04;85431.40;;;-12.10
74539;BMP180;66042;51.090;-115.340;2023-03-01T10:59:37;85442.00;;;-11.94
74539;BMP180;66042;51.090;-115.340;2023-03-01T11:04:36;85443.80;;;-11.62
74539;BMP180;66042;51.090;-115.340;2023-03-01T11:07:03;85445.40;;;-11.60
74539;BMP180;66042;51.090;-115.340;2023-03-01T11:09:34;85444.60;;;-11.70
74539;BMP180;66042;51.090;-115.340;2023-03-01T11:12:13;85444.80;;;-11.80
74539;BMP180;66042;51.090;-115.340;2023-03-01T11:14:50;85444.40;;;-11.90
74539;BMP180;66042;51.090;-115.340;2023-03-01T11:17:28;85457.20;;;-11.80
74539;BMP180;66042;51.090;-115.340;2023-03-01T11:22:56;85450.40;;;-11.70
74539;BMP180;66042;51.090;-115.340;2023-03-01T11:25:41;85456.80;;;-11.70
74539;BMP180;66042;51.090;-115.340;2023-03-01T11:28:16;85454.80;;;-11.80
74539;BMP180;66042;51.090;-115.340;2023-03-01T11:31:06;85449.20;;;-11.94
74539;BMP180;66042;51.090;-115.340;2023-03-01T11:37:02;85462.80;;;-12.00
74539;BMP180;66042;51.090;-115.340;2023-03-01T11:39:47;85458.40;;;-11.90
74539;BMP180;66042;51.090;-115.340;2023-03-01T11:45:17;85466.20;;;-11.70
74539;BMP180;66042;51.090;-115.340;2023-03-01T11:50:48;85463.60;;;-11.70
74539;BMP180;66042;51.090;-115.340;2023-03-01T11:53:39;85462.60;;;-11.70
74539;BMP180;66042;51.090;-115.340;2023-03-01T11:56:44;85464.80;;;-11.80
74539;BMP180;66042;51.090;-115.340;2023-03-01T11:59:50;85477.80;;;-11.78
74539;BMP180;66042;51.090;-115.340;2023-03-01T12:02:54;85475.00;;;-11.80
74539;BMP180;66042;51.090;-115.340;2023-03-01T12:08:23;85478.40;;;-11.70
74539;BMP180;66042;51.090;-115.340;2023-03-01T12:17:15;85474.00;;;-11.50
74539;BMP180;66042;51.090;-115.340;2023-03-01T12:26:33;85473.80;;;-11.40
74539;BMP180;66042;51.090;-115.340;2023-03-01T12:40:30;85472.20;;;-11.30
74539;BMP180;66042;51.090;-115.340;2023-03-01T12:43:25;85454.60;;;-11.30
74539;BMP180;66042;51.090;-115.340;2023-03-01T12:49:28;85459.00;;;-11.40
74539;BMP180;66042;51.090;-115.340;2023-03-01T12:54:42;85463.00;;;-11.20
74539;BMP180;66042;51.090;-115.340;2023-03-01T12:57:21;85464.80;;;-11.20
74539;BMP180;66042;51.090;-115.340;2023-03-01T13:03:25;85468.80;;;-11.20
74539;BMP180;66042;51.090;-115.340;2023-03-01T13:11:58;85465.60;;;-11.12
74539;BMP180;66042;51.090;-115.340;2023-03-01T13:16:55;85470.20;;;-11.00
74539;BMP180;66042;51.090;-115.340;2023-03-01T13:19:25;85473.00;;;-10.92
74539;BMP180;66042;51.090;-115.340;2023-03-01T13:21:54;85458.60;;;-11.00
74539;BMP180;66042;51.090;-115.340;2023-03-01T13:24:38;85456.00;;;-11.16
74539;BMP180;66042;51.090;-115.340;2023-03-01T13:30:00;85457.80;;;-11.30
74539;BMP180;66042;51.090;-115.340;2023-03-01T13:32:32;85467.00;;;-11.20
74539;BMP180;66042;51.090;-115.340;2023-03-01T13:35:40;85462.20;;;-11.10
74539;BMP180;66042;51.090;-115.340;2023-03-01T13:41:08;85451.20;;;-11.10
74539;BMP180;66042;51.090;-115.340;2023-03-01T13:43:41;85465.40;;;-11.10
74539;BMP180;66042;51.090;-115.340;2023-03-01T13:48:47;85463.00;;;-11.00
74539;BMP180;66042;51.090;-115.340;2023-03-01T13:51:15;85475.80;;;-10.92
74539;BMP180;66042;51.090;-115.340;2023-03-01T13:53:48;85474.40;;;-10.90
74539;BMP180;66042;51.090;-115.340;2023-03-01T13:56:33;85467.60;;;-10.90
74539;BMP180;66042;51.090;-115.340;2023-03-01T13:59:18;85471.20;;;-10.92
74539;BMP180;66042;51.090;-115.340;2023-03-01T14:01:57;85487.40;;;-10.90
74539;BMP180;66042;51.090;-115.340;2023-03-01T14:04:29;85489.40;;;-10.90
74539;BMP180;66042;51.090;-115.340;2023-03-01T14:07:22;85483.00;;;-10.90
74539;BMP180;66042;51.090;-115.340;2023-03-01T14:10:03;85486.00;;;-10.90
74539;BMP180;66042;51.090;-115.340;2023-03-01T14:16:21;85472.80;;;-10.90
74539;BMP180;66042;51.090;-115.340;2023-03-01T14:21:37;85455.00;;;-10.90
74539;BMP180;66042;51.090;-115.340;2023-03-01T14:24:05;85444.80;;;-10.98
74539;BMP180;66042;51.090;-115.340;2023-03-01T14:26:36;85440.40;;;-11.00
74539;BMP180;66042;51.090;-115.340;2023-03-01T14:29:03;85436.20;;;-11.08
74539;BMP180;66042;51.090;-115.340;2023-03-01T14:31:40;85424.80;;;-11.10
74539;BMP180;66042;51.090;-115.340;2023-03-01T14:34:23;85423.20;;;-11.20
74539;BMP180;66042;51.090;-115.340;2023-03-01T14:36:51;85419.80;;;-11.20
74539;BMP180;66042;51.090;-115.340;2023-03-01T14:39:25;85434.40;;;-11.10
74539;BMP180;66042;51.090;-115.340;2023-03-01T14:41:52;85435.00;;;-11.00
74539;BMP180;66042;51.090;-115.340;2023-03-01T14:44:23;85425.20;;;-11.02
74539;BMP180;66042;51.090;-115.340;2023-03-01T14:46:55;85426.60;;;-11.10
74539;BMP180;66042;51.090;-115.340;2023-03-01T14:49:30;85420.80;;;-11.08
74539;BMP180;66042;51.090;-115.340;2023-03-01T14:52:24;85414.00;;;-11.10
74539;BMP180;66042;51.090;-115.340;2023-03-01T14:54:53;85418.00;;;-11.10
74539;BMP180;66042;51.090;-115.340;2023-03-01T14:57:27;85422.00;;;-11.10
74539;BMP180;66042;51.090;-115.340;2023-03-01T14:59:58;85415.80;;;-11.00
74539;BMP180;66042;51.090;-115.340;2023-03-01T15:02:28;85405.00;;;-10.80
74539;BMP180;66042;51.090;-115.340;2023-03-01T15:05:00;85412.00;;;-10.78
74539;BMP180;66042;51.090;-115.340;2023-03-01T15:07:33;85404.60;;;-10.80
74539;BMP180;66042;51.090;-115.340;2023-03-01T15:10:03;85398.80;;;-10.70
74539;BMP180;66042;51.090;-115.340;2023-03-01T15:12:38;85394.80;;;-10.60
74539;BMP180;66042;51.090;-115.340;2023-03-01T15:15:44;85400.00;;;-10.60
74539;BMP180;66042;51.090;-115.340;2023-03-01T15:18:26;85405.20;;;-10.60
74539;BMP180;66042;51.090;-115.340;2023-03-01T15:20:55;85395.40;;;-10.40
74539;BMP180;66042;51.090;-115.340;2023-03-01T15:23:30;85396.60;;;-10.48
74539;BMP180;66042;51.090;-115.340;2023-03-01T15:25:58;85399.20;;;-10.30
74539;BMP180;66042;51.090;-115.340;2023-03-01T15:28:48;85388.60;;;-10.36
74539;BMP180;66042;51.090;-115.340;2023-03-01T15:31:23;85391.40;;;-10.24